createdAt,value
2023-04-13T00:00:36.469Z,35.83
2023-04-13T00:03:04.279Z,35.89
2023-04-13T00:05:31.866Z,35.91
2023-04-13T00:08:03.026Z,35.95
2023-04-13T00:10:36.817Z,35.78
2023-04-13T00:13:08.561Z,35.61
2023-04-13T00:15:38.108Z,35.41
2023-04-13T00:18:06.893Z,35.60
2023-04-13T00:20:33.736Z,35.35
2023-04-13T00:23:01.669Z,34.95
2023-04-13T00:25:29.271Z,35.33
2023-04-13T00:27:56.047Z,35.16
2023-04-13T00:30:22.801Z,35.36
2023-04-13T00:32:49.593Z,35.15
2023-04-13T00:35:24.967Z,35.08
2023-04-13T00:37:52.739Z,35.07
2023-04-13T00:40:19.518Z,35.14
2023-04-13T00:42:48.193Z,35.01
2023-04-13T00:45:15.742Z,35.03
2023-04-13T00:47:46.504Z,34.89
2023-04-13T00:50:14.225Z,34.86
2023-04-13T00:52:42.806Z,35.21
2023-04-13T00:55:09.688Z,35.25
2023-04-13T00:57:40.191Z,34.97
2023-04-13T01:00:11.423Z,35.20
2023-04-13T01:02:42.411Z,34.78
2023-04-13T01:05:12.757Z,35.00
2023-04-13T01:07:59.437Z,35.09
2023-04-13T01:10:50.384Z,34.81
2023-04-13T01:13:30.284Z,34.98
2023-04-13T01:16:03.759Z,34.96
2023-04-13T01:18:38.454Z,35.01
2023-04-13T01:21:12.090Z,34.62
2023-04-13T01:24:06.357Z,34.71
2023-04-13T01:26:58.398Z,34.73
2023-04-13T01:29:27.302Z,34.91
2023-04-13T01:31:54.978Z,34.90
2023-04-13T01:34:23.844Z,34.69
2023-04-13T01:36:51.069Z,34.68
2023-04-13T01:39:19.674Z,34.69
2023-04-13T01:41:47.749Z,34.74
2023-04-13T01:44:14.478Z,34.90
2023-04-13T01:46:50.429Z,34.62
2023-04-13T01:49:35.800Z,34.57
2023-04-13T01:52:27.991Z,34.71
2023-04-13T01:54:56.514Z,34.81
2023-04-13T01:57:24.619Z,34.74
2023-04-13T01:59:52.066Z,34.36
2023-04-13T02:02:21.067Z,34.36
2023-04-13T02:04:48.534Z,34.58
2023-04-13T02:07:16.338Z,34.69
2023-04-13T02:09:47.184Z,34.60
2023-04-13T02:12:16.704Z,34.62
2023-04-13T02:14:43.574Z,34.36
2023-04-13T02:17:11.270Z,34.22
2023-04-13T02:19:39.918Z,34.59
2023-04-13T02:22:07.188Z,34.45
2023-04-13T02:24:33.720Z,34.48
2023-04-13T02:27:02.070Z,34.58
2023-04-13T02:29:29.672Z,34.22
2023-04-13T02:31:56.260Z,34.45
2023-04-13T02:34:23.126Z,34.37
2023-04-13T02:36:50.006Z,34.22
2023-04-13T02:39:16.523Z,34.46
2023-04-13T02:41:43.362Z,34.69
2023-04-13T02:44:14.874Z,34.28
2023-04-13T02:46:53.083Z,33.89
2023-04-13T02:49:19.973Z,34.27
2023-04-13T02:51:56.094Z,34.33
2023-04-13T02:54:34.601Z,34.02
2023-04-13T02:57:01.846Z,34.33
2023-04-13T02:59:29.065Z,34.07
2023-04-13T03:01:58.957Z,34.21
2023-04-13T03:04:29.207Z,34.10
2023-04-13T03:06:56.875Z,34.35
2023-04-13T03:09:25.208Z,34.31
2023-04-13T03:11:56.391Z,34.40
2023-04-13T03:14:24.317Z,34.29
2023-04-13T03:16:57.786Z,34.23
2023-04-13T03:19:31.976Z,34.27
2023-04-13T03:21:58.969Z,33.94
2023-04-13T03:24:27.592Z,34.23
2023-04-13T03:26:57.887Z,34.04
2023-04-13T03:29:31.718Z,34.04
2023-04-13T03:31:58.494Z,34.22
2023-04-13T03:34:27.118Z,34.31
2023-04-13T03:36:53.710Z,34.24
2023-04-13T03:39:21.026Z,33.92
2023-04-13T03:41:47.682Z,34.46
2023-04-13T03:44:16.512Z,33.94
2023-04-13T03:46:44.877Z,33.81
2023-04-13T03:49:31.915Z,33.89
2023-04-13T03:51:58.922Z,33.68
2023-04-13T03:54:26.944Z,33.91
2023-04-13T03:56:54.601Z,33.90
2023-04-13T03:59:22.264Z,33.82
2023-04-13T04:01:48.955Z,33.59
2023-04-13T04:04:16.170Z,34.19
2023-04-13T04:06:43.030Z,34.20
2023-04-13T04:09:15.690Z,34.04
2023-04-13T04:11:46.819Z,33.81
2023-04-13T04:14:18.185Z,34.27
2023-04-13T04:17:01.993Z,34.01
2023-04-13T04:19:28.688Z,34.33
2023-04-13T04:21:57.654Z,33.81
2023-04-13T04:24:27.500Z,34.08
2023-04-13T04:26:58.989Z,34.06
2023-04-13T04:29:34.269Z,34.56
2023-04-13T04:32:11.111Z,34.43
2023-04-13T04:34:40.822Z,34.48
2023-04-13T04:37:19.777Z,34.99
2023-04-13T04:39:56.832Z,34.67
2023-04-13T04:42:25.179Z,35.12
2023-04-13T04:44:52.867Z,34.83
2023-04-13T04:47:21.382Z,34.91
2023-04-13T04:50:12.763Z,35.03
2023-04-13T04:52:41.770Z,34.71
2023-04-13T04:55:10.156Z,34.97
2023-04-13T04:57:40.165Z,35.33
2023-04-13T05:00:15.657Z,35.09
2023-04-13T05:02:50.010Z,34.96
2023-04-13T05:05:16.890Z,34.70
2023-04-13T05:07:44.924Z,35.15
2023-04-13T05:10:12.322Z,35.04
2023-04-13T05:12:44.352Z,34.81
2023-04-13T05:15:12.314Z,34.93
2023-04-13T05:17:39.257Z,35.23
2023-04-13T05:20:09.457Z,35.23
2023-04-13T05:22:45.281Z,35.15
2023-04-13T05:25:13.242Z,35.39
2023-04-13T05:27:39.787Z,35.40
2023-04-13T05:30:09.483Z,35.23
2023-04-13T05:32:38.646Z,35.34
2023-04-13T05:35:05.862Z,35.24
2023-04-13T05:37:35.451Z,35.41
2023-04-13T05:40:02.829Z,35.46
2023-04-13T05:42:32.701Z,35.56
2023-04-13T05:45:00.818Z,35.66
2023-04-13T05:47:29.005Z,35.40
2023-04-13T05:50:02.351Z,35.55
2023-04-13T05:52:30.487Z,35.39
2023-04-13T05:54:58.032Z,35.61
2023-04-13T05:57:25.034Z,35.29
2023-04-13T05:59:54.664Z,35.30
2023-04-13T06:02:29.258Z,35.24
2023-04-13T06:04:56.452Z,35.46
2023-04-13T06:07:23.284Z,35.15
2023-04-13T06:09:49.988Z,35.33
2023-04-13T06:12:18.212Z,35.23
2023-04-13T06:14:45.483Z,35.52
2023-04-13T06:17:12.105Z,35.14
2023-04-13T06:19:39.279Z,35.31
2023-04-13T06:22:05.821Z,35.71
2023-04-13T06:24:37.377Z,35.80
2023-04-13T06:27:05.685Z,35.68
2023-04-13T06:29:32.348Z,35.80
2023-04-13T06:32:05.129Z,35.61
2023-04-13T06:34:31.795Z,35.18
2023-04-13T06:37:00.353Z,35.13
2023-04-13T06:39:32.480Z,35.26
2023-04-13T06:42:01.358Z,34.86
2023-04-13T06:44:47.512Z,35.23
2023-04-13T06:47:16.102Z,34.87
2023-04-13T06:49:44.509Z,34.66
2023-04-13T06:52:11.710Z,34.71
2023-04-13T06:54:38.706Z,35.06
2023-04-13T06:57:16.156Z,34.79
2023-04-13T06:59:42.892Z,34.80
2023-04-13T07:02:09.660Z,35.02
2023-04-13T07:04:37.648Z,34.79
2023-04-13T07:07:04.596Z,34.68
2023-04-13T07:09:32.144Z,35.02
2023-04-13T07:12:05.452Z,34.92
2023-04-13T07:14:36.743Z,34.66
2023-04-13T07:17:04.814Z,34.65
2023-04-13T07:19:33.831Z,34.74
2023-04-13T07:22:04.244Z,34.55
2023-04-13T07:24:33.837Z,34.70
2023-04-13T07:27:03.172Z,34.95
2023-04-13T07:29:29.826Z,34.94
2023-04-13T07:32:03.511Z,35.04
2023-04-13T07:34:35.826Z,34.93
2023-04-13T07:37:02.757Z,34.79
2023-04-13T07:39:30.457Z,34.94
2023-04-13T07:41:57.185Z,34.78
2023-04-13T07:44:33.430Z,34.80
2023-04-13T07:47:02.531Z,34.68
2023-04-13T07:49:31.230Z,34.72
2023-04-13T07:51:59.617Z,34.72
2023-04-13T07:54:29.266Z,34.44
2023-04-13T07:56:59.809Z,34.31
2023-04-13T07:59:29.795Z,34.38
2023-04-13T08:01:58.071Z,34.43
2023-04-13T08:04:25.877Z,34.59
2023-04-13T08:06:54.005Z,34.78
2023-04-13T08:09:21.089Z,35.13
2023-04-13T08:11:47.806Z,35.35
2023-04-13T08:14:15.190Z,35.71
2023-04-13T08:16:41.870Z,36.02
2023-04-13T08:19:09.969Z,36.40
2023-04-13T08:21:44.213Z,36.45
2023-04-13T08:24:11.470Z,36.59
2023-04-13T08:26:38.295Z,37.02
2023-04-13T08:29:04.998Z,36.79
2023-04-13T08:31:32.538Z,36.92
2023-04-13T08:34:04.634Z,37.38
2023-04-13T08:36:31.830Z,37.31
2023-04-13T08:39:05.939Z,37.05
2023-04-13T08:41:39.232Z,37.20
2023-04-13T08:44:08.501Z,37.01
2023-04-13T08:46:42.663Z,36.77
2023-04-13T08:49:12.941Z,36.76
2023-04-13T08:52:00.028Z,36.49
2023-04-13T08:54:28.450Z,36.72
2023-04-13T08:56:57.703Z,36.33
2023-04-13T08:59:28.024Z,36.19
2023-04-13T09:01:55.827Z,36.32
2023-04-13T09:04:28.463Z,36.08
2023-04-13T09:07:00.148Z,36.06
2023-04-13T09:09:28.038Z,36.12
2023-04-13T09:11:54.559Z,36.57
2023-04-13T09:14:21.996Z,36.76
2023-04-13T09:16:48.936Z,36.83
2023-04-13T09:19:31.266Z,37.12
2023-04-13T09:21:57.918Z,37.12
2023-04-13T09:26:52.468Z,37.71
2023-04-13T09:29:21.681Z,37.70
2023-04-13T09:31:48.685Z,37.69
2023-04-13T09:34:27.022Z,37.56
2023-04-13T09:36:56.084Z,37.44
2023-04-13T09:39:28.382Z,37.50
2023-04-13T09:41:55.338Z,37.61
2023-04-13T09:44:34.586Z,37.86
2023-04-13T09:47:06.855Z,37.72
2023-04-13T09:49:41.281Z,37.48
2023-04-13T09:52:21.170Z,37.61
2023-04-13T09:54:52.919Z,37.71
2023-04-13T09:57:24.563Z,38.09
2023-04-13T09:59:52.552Z,37.87
2023-04-13T10:02:19.885Z,38.09
2023-04-13T10:07:13.205Z,38.46
2023-04-13T10:09:42.221Z,38.71
2023-04-13T10:12:11.847Z,38.72
2023-04-13T10:14:40.863Z,37.80
2023-04-13T10:17:33.766Z,36.58
2023-04-13T10:20:07.973Z,35.63
2023-04-13T10:22:34.653Z,34.98
2023-04-13T10:25:01.379Z,34.81
2023-04-13T10:27:28.510Z,34.15
2023-04-13T10:29:55.172Z,34.38
2023-04-13T10:34:39.588Z,34.12
2023-04-13T10:37:19.189Z,34.00
2023-04-13T10:39:46.695Z,33.24
2023-04-13T10:42:14.470Z,32.48
2023-04-13T10:44:44.809Z,32.20
2023-04-13T10:47:13.556Z,32.67
2023-04-13T10:49:41.297Z,32.80
2023-04-13T10:52:10.705Z,32.46
2023-04-13T10:54:38.183Z,32.67
2023-04-13T10:57:06.650Z,32.53
2023-04-13T11:02:16.485Z,32.05
2023-04-13T11:04:45.974Z,31.61
2023-04-13T11:07:17.010Z,31.21
2023-04-13T11:09:45.565Z,31.08
2023-04-13T11:12:15.644Z,31.25
2023-04-13T11:14:49.553Z,31.32
2023-04-13T11:17:18.857Z,30.94
2023-04-13T11:19:49.985Z,30.86
2023-04-13T11:22:18.389Z,31.00
2023-04-13T11:24:47.465Z,30.78
2023-04-13T11:27:23.236Z,30.89
2023-04-13T11:30:07.357Z,30.96
2023-04-13T11:32:34.298Z,30.55
2023-04-13T11:35:10.721Z,30.66
2023-04-13T11:37:43.326Z,30.56
2023-04-13T11:40:17.661Z,30.62
2023-04-13T11:42:48.045Z,30.66
2023-04-13T11:45:16.306Z,30.92
2023-04-13T11:47:43.810Z,30.59
2023-04-13T11:50:11.514Z,30.61
2023-04-13T11:52:40.253Z,30.18
2023-04-13T11:55:21.550Z,29.92
2023-04-13T11:57:50.764Z,30.03
2023-04-13T12:00:21.405Z,29.96
2023-04-13T12:03:00.972Z,30.26
2023-04-13T12:05:31.479Z,30.65
2023-04-13T12:08:00.268Z,30.67
2023-04-13T12:10:39.328Z,31.11
2023-04-13T12:16:05.445Z,31.75
2023-04-13T12:18:44.423Z,32.25
2023-04-13T12:21:16.413Z,32.64
2023-04-13T12:23:54.149Z,33.33
2023-04-13T12:26:59.124Z,33.73
2023-04-13T12:29:08.939Z,33.91
2023-04-13T12:31:38.173Z,34.04
2023-04-13T12:34:08.431Z,34.39
2023-04-13T12:36:36.500Z,34.39
2023-04-13T12:39:04.470Z,34.67
2023-04-13T12:41:32.037Z,34.47
2023-04-13T12:43:59.049Z,34.77
2023-04-13T12:46:26.595Z,34.73
2023-04-13T12:48:53.954Z,34.89
2023-04-13T12:51:26.958Z,34.95
2023-04-13T12:53:53.571Z,34.83
2023-04-13T12:56:20.062Z,35.24
2023-04-13T12:58:46.803Z,35.25
2023-04-13T13:01:14.100Z,35.29
2023-04-13T13:03:41.038Z,35.34
2023-04-13T13:06:08.337Z,35.39
2023-04-13T13:08:37.595Z,35.47
2023-04-13T13:11:08.245Z,35.56
2023-04-13T13:13:34.923Z,35.49
2023-04-13T13:16:02.009Z,34.99
2023-04-13T13:20:55.802Z,34.63
2023-04-13T13:23:22.541Z,34.58
2023-04-13T13:26:10.508Z,34.77
2023-04-13T13:28:37.025Z,34.58
2023-04-13T13:31:03.966Z,34.79
2023-04-13T13:33:31.490Z,34.86
2023-04-13T13:35:58.138Z,34.87
2023-04-13T13:38:24.779Z,34.93
2023-04-13T13:40:51.902Z,35.02
2023-04-13T13:43:21.417Z,34.91
2023-04-13T13:45:48.775Z,33.43
2023-04-13T13:48:15.919Z,32.00
2023-04-13T13:50:50.428Z,31.65
2023-04-13T13:53:17.181Z,31.95
2023-04-13T13:55:45.137Z,31.93
2023-04-13T13:58:11.898Z,32.28
2023-04-13T14:00:38.403Z,32.59
2023-04-13T14:03:05.701Z,32.64
2023-04-13T14:05:32.293Z,32.98
2023-04-13T14:07:59.027Z,33.28
2023-04-13T14:10:25.668Z,33.47
2023-04-13T14:12:53.033Z,33.64
2023-04-13T14:15:19.494Z,33.70
2023-04-13T14:17:55.426Z,33.84
2023-04-13T14:20:32.511Z,34.05
2023-04-13T14:22:59.387Z,32.51
2023-04-13T14:25:25.998Z,31.34
2023-04-13T14:27:52.994Z,30.84
2023-04-13T14:30:21.930Z,30.60
2023-04-13T14:32:49.391Z,30.25
2023-04-13T14:35:16.284Z,29.92
2023-04-13T14:37:42.985Z,29.86
2023-04-13T14:40:15.957Z,30.01
2023-04-13T14:42:43.350Z,29.81
2023-04-13T14:45:12.278Z,29.86
2023-04-13T14:47:40.001Z,30.28
2023-04-13T14:50:08.321Z,31.22
2023-04-13T14:52:34.983Z,31.23
2023-04-13T14:55:01.594Z,31.32
2023-04-13T14:57:29.004Z,31.35
2023-04-13T14:59:56.489Z,31.31
2023-04-13T15:02:23.467Z,31.15
2023-04-13T15:04:50.402Z,30.95
2023-04-13T15:07:18.801Z,31.12
2023-04-13T15:09:45.442Z,30.99
2023-04-13T15:12:13.732Z,30.84
2023-04-13T15:14:41.057Z,31.01
2023-04-13T15:17:08.584Z,31.25
2023-04-13T15:19:35.477Z,31.31
2023-04-13T15:22:04.754Z,31.77
2023-04-13T15:24:31.824Z,31.83
2023-04-13T15:26:58.354Z,32.05
2023-04-13T15:29:26.966Z,31.93
2023-04-13T15:31:53.980Z,31.83
2023-04-13T15:34:20.685Z,31.88
2023-04-13T15:36:48.166Z,32.00
2023-04-13T15:39:14.729Z,32.14
2023-04-13T15:41:43.674Z,32.38
2023-04-13T15:44:10.916Z,32.26
2023-04-13T15:46:37.711Z,32.29
2023-04-13T15:49:04.390Z,32.31
2023-04-13T15:51:31.884Z,32.39
2023-04-13T15:53:58.477Z,32.60
2023-04-13T15:56:25.012Z,32.99
2023-04-13T15:58:51.607Z,33.27
2023-04-13T16:01:18.201Z,33.31
2023-04-13T16:03:46.354Z,33.59
2023-04-13T16:06:13.298Z,33.59
2023-04-13T16:08:40.076Z,33.35
2023-04-13T16:11:06.620Z,33.43
2023-04-13T16:13:48.783Z,33.22
2023-04-13T16:16:16.811Z,33.41
2023-04-13T16:18:43.515Z,33.39
2023-04-13T16:21:11.106Z,33.46
2023-04-13T16:23:38.243Z,33.75
2023-04-13T16:26:05.082Z,33.91
2023-04-13T16:28:31.634Z,34.27
2023-04-13T16:30:59.015Z,34.21
2023-04-13T16:33:25.582Z,34.33
2023-04-13T16:35:52.097Z,34.32
2023-04-13T16:38:19.036Z,34.40
2023-04-13T16:40:45.768Z,34.24
2023-04-13T16:43:12.588Z,34.35
2023-04-13T16:45:39.262Z,34.54
2023-04-13T16:48:06.319Z,34.54
2023-04-13T16:50:40.666Z,34.30
2023-04-13T16:53:07.382Z,34.26
2023-04-13T16:55:33.920Z,34.52
2023-04-13T16:58:00.770Z,34.52
2023-04-13T17:00:27.397Z,34.38
2023-04-13T17:02:54.123Z,34.68
2023-04-13T17:05:20.869Z,35.41
2023-04-13T17:07:48.096Z,35.95
2023-04-13T17:10:14.973Z,36.36
2023-04-13T17:12:41.717Z,37.13
2023-04-13T17:15:09.584Z,37.23
2023-04-13T17:17:37.933Z,37.13
2023-04-13T17:20:05.825Z,37.27
2023-04-13T17:22:32.564Z,37.13
2023-04-13T17:24:59.159Z,37.12
2023-04-13T17:27:25.714Z,37.18
2023-04-13T17:29:52.253Z,36.99
2023-04-13T17:32:21.405Z,37.25
2023-04-13T17:34:48.612Z,37.54
2023-04-13T17:37:15.881Z,37.88
2023-04-13T17:39:50.657Z,38.15
2023-04-13T17:42:19.111Z,38.05
2023-04-13T17:44:45.721Z,38.19
2023-04-13T17:47:12.324Z,38.19
2023-04-13T17:49:41.628Z,38.12
2023-04-13T17:52:08.795Z,38.44
2023-04-13T17:54:36.148Z,38.27
2023-04-13T17:57:07.050Z,38.26
2023-04-13T17:59:33.779Z,38.13
2023-04-13T18:02:00.506Z,38.26
2023-04-13T18:04:27.935Z,38.29
2023-04-13T18:06:56.452Z,38.28
2023-04-13T18:09:27.022Z,38.09
2023-04-13T18:11:53.723Z,37.89
2023-04-13T18:14:20.861Z,37.94
2023-04-13T18:16:49.688Z,37.70
2023-04-13T18:19:16.226Z,37.73
2023-04-13T18:21:43.927Z,37.71
2023-04-13T18:24:16.386Z,37.54
2023-04-13T18:26:44.914Z,37.37
2023-04-13T18:29:13.680Z,37.31
2023-04-13T18:31:40.502Z,37.38
2023-04-13T18:34:13.403Z,37.20
2023-04-13T18:36:40.492Z,37.04
2023-04-13T18:39:07.631Z,37.00
2023-04-13T18:41:35.279Z,37.13
2023-04-13T18:44:02.415Z,36.97
2023-04-13T18:46:29.288Z,37.22
2023-04-13T18:48:55.919Z,37.24
2023-04-13T18:51:22.861Z,37.24
2023-04-13T18:53:50.110Z,36.89
2023-04-13T18:56:16.892Z,37.11
2023-04-13T18:58:44.904Z,37.31
2023-04-13T19:01:18.612Z,37.45
2023-04-13T19:03:46.197Z,37.67
2023-04-13T19:06:12.945Z,37.67
2023-04-13T19:08:39.587Z,37.56
2023-04-13T19:11:06.124Z,37.52
2023-04-13T19:13:36.095Z,37.42
2023-04-13T19:16:06.444Z,37.45
2023-04-13T19:18:34.909Z,37.33
2023-04-13T19:21:01.491Z,37.69
2023-04-13T19:23:28.506Z,38.25
2023-04-13T19:25:55.450Z,39.00
2023-04-13T19:30:44.740Z,40.47
2023-04-13T19:33:13.069Z,40.88
2023-04-13T19:38:05.894Z,41.33
2023-04-13T19:40:33.745Z,41.18
2023-04-13T19:43:01.413Z,41.17
2023-04-13T19:45:28.363Z,40.90
2023-04-13T19:47:55.109Z,40.93
2023-04-13T19:50:22.537Z,40.54
2023-04-13T19:52:50.253Z,40.23
2023-04-13T19:55:17.079Z,40.33
2023-04-13T19:57:43.719Z,40.10
2023-04-13T20:00:20.799Z,39.78
2023-04-13T20:02:49.863Z,39.55
2023-04-13T20:05:19.734Z,39.36
2023-04-13T20:07:46.890Z,39.20
2023-04-13T20:10:13.618Z,38.89
2023-04-13T20:12:40.615Z,38.95
2023-04-13T20:15:07.931Z,38.70
2023-04-13T20:17:35.079Z,38.51
2023-04-13T20:20:04.376Z,38.41
2023-04-13T20:22:32.172Z,38.56
2023-04-13T20:24:58.775Z,38.20
2023-04-13T20:27:25.985Z,38.05
2023-04-13T20:29:52.613Z,38.00
2023-04-13T20:32:19.611Z,37.98
2023-04-13T20:34:47.150Z,38.25
2023-04-13T20:37:14.390Z,38.36
2023-04-13T20:39:50.253Z,38.79
2023-04-13T20:42:22.397Z,38.69
2023-04-13T20:44:57.526Z,38.67
2023-04-13T20:47:27.513Z,38.63
2023-04-13T20:49:57.295Z,38.40
2023-04-13T20:52:24.678Z,38.29
2023-04-13T20:54:51.616Z,38.01
2023-04-13T20:57:19.853Z,38.05
2023-04-13T20:59:47.234Z,37.83
2023-04-13T21:02:15.565Z,37.82
2023-04-13T21:06:55.043Z,37.91
2023-04-13T21:09:21.571Z,37.42
2023-04-13T21:11:48.030Z,37.62
2023-04-13T21:14:22.726Z,37.47
2023-04-13T21:16:49.288Z,37.63
2023-04-13T21:19:15.949Z,37.48
2023-04-13T21:21:42.616Z,37.49
2023-04-13T21:24:09.209Z,37.16
2023-04-13T21:26:35.746Z,37.24
2023-04-13T21:29:02.354Z,37.25
2023-04-13T21:31:29.028Z,36.99
2023-04-13T21:33:56.017Z,37.01
2023-04-13T21:38:52.218Z,37.02
2023-04-13T21:41:20.840Z,37.20
2023-04-13T21:43:47.827Z,36.95
2023-04-13T21:46:15.888Z,37.06
2023-04-13T21:48:42.601Z,36.82
2023-04-13T21:51:09.715Z,37.01
2023-04-13T21:53:36.884Z,36.91
2023-04-13T21:56:04.139Z,36.88
2023-04-13T21:58:38.588Z,37.04
2023-04-13T22:01:06.635Z,36.86
2023-04-13T22:03:41.005Z,36.78
2023-04-13T22:06:10.691Z,36.63
2023-04-13T22:08:37.725Z,36.66
2023-04-13T22:11:04.693Z,36.93
2023-04-13T22:13:31.467Z,36.58
2023-04-13T22:15:58.626Z,36.85
2023-04-13T22:18:26.478Z,36.45
2023-04-13T22:20:53.226Z,36.83
2023-04-13T22:23:20.246Z,36.67
2023-04-13T22:25:53.923Z,36.70
2023-04-13T22:28:20.478Z,36.62
2023-04-13T22:30:47.286Z,36.40
2023-04-13T22:33:14.299Z,36.38
2023-04-13T22:35:41.636Z,36.74
2023-04-13T22:38:08.325Z,36.61
2023-04-13T22:40:37.782Z,36.58
2023-04-13T22:43:04.820Z,36.56
2023-04-13T22:45:31.625Z,36.64
2023-04-13T22:47:58.248Z,36.50
2023-04-13T22:50:24.873Z,36.63
2023-04-13T22:52:53.282Z,36.37
2023-04-13T22:55:20.655Z,36.51
2023-04-13T22:57:47.500Z,36.56
2023-04-13T23:00:14.297Z,36.71
2023-04-13T23:02:41.215Z,36.50
2023-04-13T23:05:08.477Z,36.39
2023-04-13T23:07:35.365Z,36.39
2023-04-13T23:10:01.972Z,36.56
2023-04-13T23:12:28.917Z,36.29
2023-04-13T23:14:55.406Z,36.38
2023-04-13T23:17:22.315Z,36.51
2023-04-13T23:19:48.882Z,36.53
2023-04-13T23:22:15.437Z,36.42
2023-04-13T23:24:42.038Z,36.17
2023-04-13T23:27:08.633Z,36.45
2023-04-13T23:29:35.326Z,36.44
2023-04-13T23:32:01.996Z,36.52
2023-04-13T23:34:28.714Z,36.26
2023-04-13T23:36:56.171Z,36.38
2023-04-13T23:39:23.058Z,36.10
2023-04-13T23:41:49.608Z,36.48
2023-04-13T23:44:16.291Z,36.36
2023-04-13T23:46:43.658Z,36.35
2023-04-13T23:49:10.153Z,36.38
2023-04-13T23:51:36.786Z,36.26
2023-04-13T23:54:03.391Z,36.40
2023-04-13T23:56:30.466Z,36.21
2023-04-13T23:58:56.962Z,36.27
